Terminal Aerodrome Forecast
Issued by NWS

Home | Current Version | Previous Version | Text Only | Print | Product List | Glossary On
Versions: 1 2 3 4 5 6 7 8 9 10 11 12 13
994
FTUS44 KLZK 251134
TAFBPK
TAF
KBPK 251134Z 2512/2612 VRB03KT P6SM FEW030 SCT100 BKN250
     FM251500 33005KT P6SM VCTS SCT030CB BKN100 OVC250
      TEMPO 2518/2522 VRB15G30KT 4SM TSRA BKN040CB OVC080
     FM260100 VRB03KT P6SM VCSH SCT050 OVC250=

USA.gov is the U.S. government's official web portal to all federal, state and local government web resources and services.